Terminal Aerodrome Forecast
Issued by NWS

Home | Current Version | Previous Version | Text Only | Print | Product List | Glossary On
Versions: 1 2 3 4 5 6 7 8 9 10 11 12 13 14
000
FTUS42 KGSP 230539
TAFHKY
TAF
KHKY 230539Z 2306/2406 00000KT P6SM SCT250
     FM230900 00000KT 5SM BR FEW250
      TEMPO 2309/2312 3SM BR FEW004
     FM231300 VRB02KT P6SM FEW250
     FM232000 17004KT P6SM SCT060 SCT250 PROB30 2320/2324 4SM -TSRA
      BKN060CB
     FM240300 21003KT P6SM SCT250=

USA.gov is the U.S. government's official web portal to all federal, state and local government web resources and services.